Accueil
METAR-TAF:

Aéroports :

Bauru, São Paulo, Brésil

latitude: 22-19S, longitude: 049-04W, altitude: 590 m

Observation

Le bulletin a été fait il y a 33 minutes, à 23:00 UTC
Vent 3 kt de sud-est
Température 31°C
Humidité 59%
Pression 1011 hPa
Visibilité 10 km ou plus
pas de nuages en-dessous de 1500 mètres et pas de cumulonimbus.

METAR: SBBU 132300Z 13003KT CAVOK 31/22 Q1011

Heure: 21:33 (23:33 UTC)

Prévision

Le bulletin a été fait il y a 7 heures et 33 minutes, à 16:00 UTC
Prévision valable du 13 à 18 UTC au 14 à 06 UTC
Vent 5 kt de est
Visibilité 10 km ou plus
Quelques nuages à une hauteur de 4500 ft
Evoluant progressivement
du 14 à 00 UTC au 14 à 02 UTC
Visibilité 10 km ou plus
pas de nuages en-dessous de 1500 mètres et pas de cumulonimbus.

TAF: SBBU 131600Z 1318/1406 08005KT 9999 FEW045 TX34/1318Z TN23/1405Z BECMG 1400/1402 CAVOK RMK PDW

METAR-TAF

Observations et prévisions météorologiques de plus de 4000 aéroports (messages METAR et TAF).

Les stations disponibles sont représentées par des disques jaunes et rouges sur la carte.

Passer la souris dessus pour voir le nom de la station.

Cliquer dessus pour voir les observations et prévisions météorologiques.

Pour changer de carte: cliquez sur les boutons verts avec une croix noire pour zoomer, sur le bouton vert avec un tiret pour effectuer un zoom arrière, ou sur les flèches vertes pour les cartes adjacentes.


METAR-TAF: